createdAt,value
2022-09-25T00:00:44.200Z,423.60
2022-09-25T00:01:44.204Z,418.40
2022-09-25T00:02:44.264Z,412.70
2022-09-25T00:03:44.145Z,405.70
2022-09-25T00:04:44.119Z,372.20
2022-09-25T00:05:44.137Z,350.10
2022-09-25T00:06:44.094Z,312.70
2022-09-25T00:07:44.079Z,281.40
2022-09-25T00:08:44.056Z,249.30
2022-09-25T00:09:44.048Z,238.30
2022-09-25T00:10:44.070Z,224.10
2022-09-25T00:11:44.040Z,215.30
2022-09-25T00:12:44.032Z,220.50
2022-09-25T00:13:44.012Z,218.60
2022-09-25T00:14:44.015Z,210.30
2022-09-25T00:15:44.036Z,207.70
2022-09-25T00:16:44.090Z,202.70
2022-09-25T00:17:43.976Z,201.30
2022-09-25T00:18:43.982Z,198.30
2022-09-25T00:19:43.960Z,202.90
2022-09-25T00:20:43.961Z,221.40
2022-09-25T00:21:43.935Z,221.80
2022-09-25T00:22:43.912Z,214.60
2022-09-25T00:23:43.904Z,207.80
2022-09-25T00:24:43.894Z,206.40
2022-09-25T00:25:43.921Z,221.60
2022-09-25T00:26:43.874Z,231.20
2022-09-25T00:27:43.860Z,247.20
2022-09-25T00:28:43.855Z,260.20
2022-09-25T00:29:43.849Z,278.90
2022-09-25T00:30:43.899Z,291.20
2022-09-25T00:31:43.820Z,290.80
2022-09-25T00:32:43.811Z,292.40
2022-09-25T00:33:43.808Z,315.00
2022-09-25T00:34:43.781Z,320.30
2022-09-25T00:35:43.801Z,342.20
2022-09-25T00:36:43.756Z,344.10
2022-09-25T00:37:43.760Z,344.50
2022-09-25T00:38:43.723Z,348.60
2022-09-25T00:39:43.711Z,350.70
2022-09-25T00:40:43.825Z,351.10
2022-09-25T00:41:43.692Z,353.60
2022-09-25T00:42:43.703Z,358.50
2022-09-25T00:43:43.682Z,377.90
2022-09-25T00:44:43.677Z,372.80
2022-09-25T00:45:43.757Z,383.70
2022-09-25T00:46:43.657Z,363.30
2022-09-25T00:47:43.636Z,368.50
2022-09-25T00:48:43.620Z,375.70
2022-09-25T00:49:43.617Z,378.10
2022-09-25T00:50:43.645Z,372.30
2022-09-25T00:51:43.599Z,383.30
2022-09-25T00:52:43.571Z,395.80
2022-09-25T00:53:43.575Z,411.00
2022-09-25T00:54:43.555Z,412.20
2022-09-25T00:55:43.580Z,408.10
2022-09-25T00:56:43.536Z,411.50
2022-09-25T00:57:43.527Z,408.40
2022-09-25T00:58:43.515Z,414.60
2022-09-25T00:59:43.506Z,410.00
2022-09-25T01:00:43.523Z,399.90
2022-09-25T01:01:43.540Z,372.80
2022-09-25T01:02:43.512Z,355.50
2022-09-25T01:03:43.486Z,326.30
2022-09-25T01:04:43.451Z,306.40
2022-09-25T01:05:43.475Z,291.10
2022-09-25T01:06:43.418Z,274.70
2022-09-25T01:07:43.416Z,261.90
2022-09-25T01:08:43.396Z,264.60
2022-09-25T01:09:43.386Z,263.60
2022-09-25T01:10:43.389Z,250.20
2022-09-25T01:11:43.342Z,253.40
2022-09-25T01:12:43.340Z,254.30
2022-09-25T01:13:43.322Z,247.30
2022-09-25T01:14:43.337Z,254.70
2022-09-25T01:15:43.360Z,251.60
2022-09-25T01:16:43.350Z,258.90
2022-09-25T01:17:43.303Z,261.40
2022-09-25T01:18:43.279Z,261.00
2022-09-25T01:19:43.280Z,253.40
2022-09-25T01:20:43.305Z,241.40
2022-09-25T01:21:43.258Z,250.60
2022-09-25T01:22:43.242Z,257.30
2022-09-25T01:23:43.222Z,260.50
2022-09-25T01:24:43.211Z,248.60
2022-09-25T01:25:43.248Z,229.90
2022-09-25T01:26:43.196Z,210.80
2022-09-25T01:27:43.181Z,211.80
2022-09-25T01:28:43.176Z,212.90
2022-09-25T01:29:43.153Z,205.10
2022-09-25T01:30:43.255Z,211.40
2022-09-25T01:31:43.162Z,214.30
2022-09-25T01:32:43.140Z,216.50
2022-09-25T01:33:43.126Z,218.80
2022-09-25T01:34:43.093Z,217.10
2022-09-25T01:35:43.145Z,213.50
2022-09-25T01:36:43.115Z,215.00
2022-09-25T01:37:43.053Z,217.20
2022-09-25T01:38:43.034Z,199.20
2022-09-25T01:39:43.035Z,209.60
2022-09-25T01:40:43.161Z,211.20
2022-09-25T01:41:43.052Z,220.30
2022-09-25T01:42:42.991Z,216.50
2022-09-25T01:43:42.981Z,215.70
2022-09-25T01:44:42.969Z,217.90
2022-09-25T01:45:43.020Z,225.10
2022-09-25T01:46:42.961Z,237.10
2022-09-25T01:47:42.961Z,259.40
2022-09-25T01:48:42.932Z,270.00
2022-09-25T01:49:42.915Z,276.20
2022-09-25T01:50:42.933Z,288.60
2022-09-25T01:51:42.894Z,299.80
2022-09-25T01:52:42.874Z,310.70
2022-09-25T01:53:45.825Z,297.50
2022-09-25T01:54:43.851Z,282.90
2022-09-25T01:55:42.912Z,272.80
2022-09-25T01:56:42.827Z,271.40
2022-09-25T01:57:42.844Z,281.00
2022-09-25T01:58:42.816Z,295.40
2022-09-25T01:59:42.820Z,303.20
2022-09-25T02:00:42.854Z,308.40
2022-09-25T02:01:42.961Z,336.10
2022-09-25T02:02:42.947Z,348.70
2022-09-25T02:03:42.760Z,373.70
2022-09-25T02:04:42.764Z,380.40
2022-09-25T02:05:42.746Z,397.70
2022-09-25T02:06:42.764Z,410.50
2022-09-25T02:07:42.720Z,411.50
2022-09-25T02:08:42.696Z,399.50
2022-09-25T02:09:42.701Z,374.00
2022-09-25T02:10:42.726Z,353.20
2022-09-25T02:11:42.669Z,377.60
2022-09-25T02:12:42.668Z,384.20
2022-09-25T02:13:42.636Z,401.30
2022-09-25T02:14:42.627Z,406.40
2022-09-25T02:15:42.639Z,422.70
2022-09-25T02:16:42.652Z,430.80
2022-09-25T02:17:42.601Z,407.60
2022-09-25T02:18:42.607Z,408.40
2022-09-25T02:19:42.557Z,412.80
2022-09-25T02:20:42.616Z,408.70
2022-09-25T02:21:42.561Z,410.70
2022-09-25T02:22:42.544Z,396.40
2022-09-25T02:23:42.545Z,392.90
2022-09-25T02:24:42.522Z,362.40
2022-09-25T02:25:42.548Z,370.80
2022-09-25T02:26:42.539Z,372.10
2022-09-25T02:27:42.467Z,348.90
2022-09-25T02:28:42.474Z,347.00
2022-09-25T02:29:42.451Z,348.60
2022-09-25T02:30:42.528Z,342.40
2022-09-25T02:31:42.434Z,347.70
2022-09-25T02:32:42.423Z,345.80
2022-09-25T02:33:42.412Z,339.00
2022-09-25T02:34:42.409Z,344.60
2022-09-25T02:35:42.442Z,341.00
2022-09-25T02:36:42.384Z,341.80
2022-09-25T02:37:42.376Z,332.40
2022-09-25T02:38:42.369Z,322.60
2022-09-25T02:39:42.335Z,330.00
2022-09-25T02:40:42.444Z,328.70
2022-09-25T02:41:42.342Z,308.30
2022-09-25T02:42:42.329Z,279.80
2022-09-25T02:43:42.327Z,267.10
2022-09-25T02:44:42.302Z,241.60
2022-09-25T02:45:42.380Z,240.90
2022-09-25T02:46:42.261Z,241.80
2022-09-25T02:47:42.243Z,252.60
2022-09-25T02:48:42.274Z,252.60
2022-09-25T02:49:42.235Z,248.40
2022-09-25T02:50:42.279Z,253.30
2022-09-25T02:51:42.231Z,253.10
2022-09-25T02:52:42.237Z,247.70
2022-09-25T02:53:42.192Z,247.30
2022-09-25T02:54:42.201Z,242.40
2022-09-25T02:55:42.222Z,243.40
2022-09-25T02:56:42.164Z,232.90
2022-09-25T02:57:42.149Z,227.50
2022-09-25T02:58:42.134Z,226.70
2022-09-25T02:59:42.132Z,212.50
2022-09-25T03:00:42.169Z,210.70
2022-09-25T03:01:42.158Z,205.70
2022-09-25T03:02:42.160Z,203.00
2022-09-25T03:03:42.067Z,202.60
2022-09-25T03:04:42.082Z,203.00
2022-09-25T03:05:42.108Z,207.50
2022-09-25T03:06:42.065Z,220.50
2022-09-25T03:07:42.042Z,235.30
2022-09-25T03:08:42.048Z,244.50
2022-09-25T03:09:42.015Z,245.10
2022-09-25T03:10:42.045Z,247.60
2022-09-25T03:11:42.017Z,253.60
2022-09-25T03:12:41.987Z,261.50
2022-09-25T03:13:41.977Z,263.60
2022-09-25T03:14:41.969Z,265.50
2022-09-25T03:15:41.982Z,264.20
2022-09-25T03:16:41.984Z,266.80
2022-09-25T03:17:41.906Z,264.70
2022-09-25T03:18:41.910Z,252.00
2022-09-25T03:19:41.880Z,246.20
2022-09-25T03:20:42.066Z,240.80
2022-09-25T03:21:41.874Z,236.60
2022-09-25T03:22:41.868Z,230.90
2022-09-25T03:23:41.850Z,228.90
2022-09-25T03:24:41.843Z,229.40
2022-09-25T03:25:44.768Z,227.50
2022-09-25T03:26:42.823Z,234.40
2022-09-25T03:27:41.810Z,218.20
2022-09-25T03:28:41.806Z,223.30
2022-09-25T03:29:41.774Z,218.30
2022-09-25T03:30:41.863Z,213.50
2022-09-25T03:31:41.755Z,210.90
2022-09-25T03:32:41.760Z,214.60
2022-09-25T03:33:41.734Z,217.80
2022-09-25T03:34:41.729Z,222.00
2022-09-25T03:35:41.759Z,228.70
2022-09-25T03:36:41.706Z,233.80
2022-09-25T03:37:41.698Z,242.60
2022-09-25T03:38:41.677Z,244.60
2022-09-25T03:39:41.664Z,249.00
2022-09-25T03:40:41.728Z,266.80
2022-09-25T03:41:41.647Z,296.80
2022-09-25T03:42:41.640Z,310.80
2022-09-25T03:43:41.616Z,313.10
2022-09-25T03:44:41.615Z,321.20
2022-09-25T03:45:41.664Z,313.70
2022-09-25T03:46:41.588Z,302.40
2022-09-25T03:47:41.580Z,288.70
2022-09-25T03:48:41.569Z,286.30
2022-09-25T03:49:41.548Z,283.40
2022-09-25T03:50:41.572Z,283.30
2022-09-25T03:51:41.515Z,300.60
2022-09-25T03:52:41.515Z,316.70
2022-09-25T03:53:41.490Z,304.80
2022-09-25T03:54:41.491Z,319.60
2022-09-25T03:55:41.526Z,317.30
2022-09-25T03:56:41.468Z,305.20
2022-09-25T03:57:41.495Z,302.50
2022-09-25T03:58:41.462Z,310.50
2022-09-25T03:59:41.436Z,315.90
2022-09-25T04:00:41.478Z,313.70
2022-09-25T04:01:41.508Z,311.40
2022-09-25T04:02:41.469Z,299.60
2022-09-25T04:03:41.399Z,279.40
2022-09-25T04:04:41.387Z,268.80
2022-09-25T04:05:41.410Z,264.50
2022-09-25T04:06:41.367Z,249.80
2022-09-25T04:07:41.357Z,251.20
2022-09-25T04:08:41.339Z,241.80
2022-09-25T04:09:41.330Z,248.10
2022-09-25T04:10:41.350Z,251.10
2022-09-25T04:11:41.309Z,273.30
2022-09-25T04:12:41.307Z,277.70
2022-09-25T04:13:41.281Z,283.50
2022-09-25T04:14:41.271Z,290.70
2022-09-25T04:15:41.299Z,308.90
2022-09-25T04:16:41.299Z,312.20
2022-09-25T04:17:41.235Z,327.20
2022-09-25T04:18:41.228Z,316.50
2022-09-25T04:19:41.224Z,317.40
2022-09-25T04:20:41.248Z,306.30
2022-09-25T04:21:41.189Z,306.20
2022-09-25T04:22:41.191Z,310.10
2022-09-25T04:23:41.176Z,311.40
2022-09-25T04:24:41.150Z,320.50
2022-09-25T04:25:41.183Z,330.30
2022-09-25T04:26:41.138Z,340.70
2022-09-25T04:27:41.124Z,339.20
2022-09-25T04:28:41.124Z,345.20
2022-09-25T04:29:41.110Z,337.00
2022-09-25T04:30:41.137Z,336.80
2022-09-25T04:31:41.124Z,341.40
2022-09-25T04:32:41.081Z,337.30
2022-09-25T04:33:41.056Z,326.10
2022-09-25T04:34:41.050Z,319.10
2022-09-25T04:35:41.077Z,306.10
2022-09-25T04:36:41.033Z,315.70
2022-09-25T04:37:41.013Z,306.30
2022-09-25T04:38:41.000Z,304.60
2022-09-25T04:39:40.993Z,298.60
2022-09-25T04:40:41.130Z,298.70
2022-09-25T04:41:40.955Z,314.50
2022-09-25T04:42:40.993Z,331.50
2022-09-25T04:43:40.947Z,328.30
2022-09-25T04:44:40.933Z,343.60
2022-09-25T04:45:40.958Z,345.70
2022-09-25T04:46:40.964Z,341.80
2022-09-25T04:47:40.907Z,343.00
2022-09-25T04:48:40.891Z,337.50
2022-09-25T04:49:40.876Z,334.90
2022-09-25T04:50:40.911Z,335.40
2022-09-25T04:51:40.856Z,339.70
2022-09-25T04:52:40.872Z,336.60
2022-09-25T04:53:40.836Z,341.90
2022-09-25T04:54:40.875Z,349.30
2022-09-25T04:55:40.815Z,337.30
2022-09-25T04:56:40.796Z,327.80
2022-09-25T04:57:57.772Z,314.80
2022-09-25T04:58:41.773Z,307.10
2022-09-25T04:59:40.758Z,292.00
2022-09-25T05:00:40.800Z,278.60
2022-09-25T05:01:40.907Z,280.90
2022-09-25T05:02:40.803Z,277.00
2022-09-25T05:03:40.885Z,282.00
2022-09-25T05:04:40.716Z,284.50
2022-09-25T05:05:40.736Z,284.60
2022-09-25T05:06:40.691Z,290.80
2022-09-25T05:07:40.679Z,293.30
2022-09-25T05:08:40.676Z,281.50
2022-09-25T05:09:40.655Z,289.00
2022-09-25T05:10:40.679Z,278.30
2022-09-25T05:11:40.621Z,282.70
2022-09-25T05:12:40.625Z,281.20
2022-09-25T05:13:40.611Z,263.10
2022-09-25T05:14:40.615Z,262.20
2022-09-25T05:15:40.687Z,257.10
2022-09-25T05:16:40.632Z,254.90
2022-09-25T05:17:40.563Z,256.90
2022-09-25T05:18:40.543Z,253.20
2022-09-25T05:19:40.557Z,234.40
2022-09-25T05:20:40.563Z,222.90
2022-09-25T05:21:40.521Z,199.10
2022-09-25T05:22:40.512Z,197.70
2022-09-25T05:23:40.486Z,196.10
2022-09-25T05:24:40.500Z,196.20
2022-09-25T05:25:40.506Z,207.10
2022-09-25T05:26:40.471Z,227.20
2022-09-25T05:27:40.478Z,261.50
2022-09-25T05:28:40.440Z,294.50
2022-09-25T05:29:40.426Z,313.40
2022-09-25T05:30:40.446Z,331.00
2022-09-25T05:31:40.431Z,338.00
2022-09-25T05:32:40.403Z,344.70
2022-09-25T05:33:40.379Z,352.70
2022-09-25T05:34:40.394Z,359.90
2022-09-25T05:35:40.386Z,376.30
2022-09-25T05:36:40.345Z,375.70
2022-09-25T05:37:40.343Z,378.20
2022-09-25T05:38:40.344Z,380.30
2022-09-25T05:39:40.310Z,376.70
2022-09-25T05:40:40.399Z,366.00
2022-09-25T05:41:40.296Z,369.20
2022-09-25T05:42:40.296Z,365.10
2022-09-25T05:43:40.291Z,365.90
2022-09-25T05:44:40.254Z,352.60
2022-09-25T05:45:40.275Z,341.70
2022-09-25T05:46:40.303Z,328.60
2022-09-25T05:47:40.218Z,316.40
2022-09-25T05:48:40.218Z,310.30
2022-09-25T05:49:40.194Z,294.00
2022-09-25T05:50:40.234Z,279.90
2022-09-25T05:51:40.175Z,266.60
2022-09-25T05:52:40.176Z,261.00
2022-09-25T05:53:40.149Z,247.80
2022-09-25T05:54:40.146Z,235.20
2022-09-25T05:55:40.168Z,230.60
2022-09-25T05:56:40.127Z,240.30
2022-09-25T05:57:40.112Z,238.40
2022-09-25T05:58:40.114Z,251.30
2022-09-25T05:59:40.085Z,260.80
2022-09-25T06:00:40.108Z,273.40
2022-09-25T06:01:40.114Z,275.30
2022-09-25T06:02:40.142Z,286.00
2022-09-25T06:03:40.035Z,282.90
2022-09-25T06:04:40.028Z,292.30
2022-09-25T06:05:40.043Z,282.50
2022-09-25T06:06:40.000Z,289.10
2022-09-25T06:07:39.994Z,299.30
2022-09-25T06:08:39.990Z,298.20
2022-09-25T06:09:39.971Z,300.80
2022-09-25T06:10:40.004Z,310.70
2022-09-25T06:11:39.954Z,312.00
2022-09-25T06:12:39.976Z,320.90
2022-09-25T06:13:39.927Z,320.70
2022-09-25T06:14:39.913Z,341.90
2022-09-25T06:15:39.992Z,337.20
2022-09-25T06:16:39.895Z,346.90
2022-09-25T06:17:39.877Z,351.20
2022-09-25T06:18:39.870Z,360.50
2022-09-25T06:19:39.859Z,363.90
2022-09-25T06:20:39.889Z,376.70
2022-09-25T06:21:39.832Z,386.10
2022-09-25T06:22:39.837Z,408.30
2022-09-25T06:23:39.813Z,413.80
2022-09-25T06:24:39.801Z,425.00
2022-09-25T06:25:39.845Z,441.40
2022-09-25T06:26:39.791Z,453.40
2022-09-25T06:27:39.772Z,457.40
2022-09-25T06:28:39.751Z,474.50
2022-09-25T06:29:39.758Z,470.70
2022-09-25T06:30:39.780Z,474.50
2022-09-25T06:31:39.762Z,468.70
2022-09-25T06:32:39.726Z,430.70
2022-09-25T06:33:39.712Z,385.60
2022-09-25T06:34:39.698Z,351.90
2022-09-25T06:35:39.720Z,356.80
2022-09-25T06:36:39.665Z,356.20
2022-09-25T06:37:39.651Z,342.00
2022-09-25T06:38:39.638Z,304.90
2022-09-25T06:39:39.642Z,292.50
2022-09-25T06:40:39.706Z,307.40
2022-09-25T06:41:39.629Z,314.10
2022-09-25T06:42:39.599Z,309.80
2022-09-25T06:43:39.591Z,270.60
2022-09-25T06:44:39.582Z,242.00
2022-09-25T06:45:39.611Z,207.00
2022-09-25T06:46:39.629Z,195.70
2022-09-25T06:47:39.547Z,182.10
2022-09-25T06:48:39.522Z,171.30
2022-09-25T06:49:39.520Z,169.00
2022-09-25T06:50:39.548Z,165.50
2022-09-25T06:51:39.513Z,169.10
2022-09-25T06:52:39.481Z,169.70
2022-09-25T06:53:39.484Z,185.50
2022-09-25T06:54:43.801Z,187.70
2022-09-25T06:55:39.493Z,201.10
2022-09-25T06:56:39.444Z,208.00
2022-09-25T06:57:39.458Z,214.30
2022-09-25T06:58:39.439Z,205.70
2022-09-25T06:59:39.423Z,200.20
2022-09-25T07:00:39.429Z,198.80
2022-09-25T07:01:39.417Z,192.60
2022-09-25T07:02:39.396Z,188.80
2022-09-25T07:03:39.371Z,188.00
2022-09-25T07:04:39.351Z,190.80
2022-09-25T07:05:39.381Z,186.80
2022-09-25T07:06:39.334Z,186.40
2022-09-25T07:07:39.330Z,191.30
2022-09-25T07:08:39.322Z,199.60
2022-09-25T07:09:39.288Z,231.70
2022-09-25T07:10:42.749Z,250.50
2022-09-25T07:11:40.288Z,266.40
2022-09-25T07:12:39.263Z,279.40
2022-09-25T07:13:39.250Z,299.30
2022-09-25T07:14:39.239Z,316.40
2022-09-25T07:15:39.304Z,326.20
2022-09-25T07:16:39.214Z,315.90
2022-09-25T07:17:39.213Z,298.20
2022-09-25T07:18:39.190Z,284.90
2022-09-25T07:19:39.184Z,276.70
2022-09-25T07:20:39.199Z,279.00
2022-09-25T07:21:39.158Z,257.60
2022-09-25T07:22:39.147Z,239.70
2022-09-25T07:23:39.138Z,224.20
2022-09-25T07:24:39.117Z,201.20
2022-09-25T07:25:39.142Z,83.10
2022-09-25T07:26:43.082Z,91.40
2022-09-25T07:27:39.092Z,93.40
2022-09-25T07:28:39.087Z,88.40
2022-09-25T07:29:39.073Z,232.80
2022-09-25T07:30:39.170Z,299.90
2022-09-25T07:31:39.100Z,345.50
2022-09-25T07:32:39.034Z,354.60
2022-09-25T07:33:39.029Z,368.40
2022-09-25T07:34:39.016Z,230.70
2022-09-25T07:35:39.049Z,83.80
2022-09-25T07:36:38.981Z,85.40
2022-09-25T07:37:38.973Z,84.20
2022-09-25T07:38:38.964Z,169.60
2022-09-25T07:39:38.980Z,269.80
2022-09-25T07:40:39.034Z,236.30
2022-09-25T07:41:38.941Z,218.80
2022-09-25T07:42:38.944Z,199.10
2022-09-25T07:43:38.914Z,172.20
2022-09-25T07:44:39.528Z,73.00
2022-09-25T07:45:38.924Z,81.60
2022-09-25T07:46:38.892Z,76.50
2022-09-25T07:47:38.870Z,57.80
2022-09-25T07:48:38.856Z,67.80
2022-09-25T07:49:38.842Z,65.00
2022-09-25T07:50:38.863Z,52.50
2022-09-25T07:51:38.830Z,45.80
2022-09-25T07:52:38.800Z,30.20
2022-09-25T07:53:38.797Z,59.80
2022-09-25T07:54:38.793Z,84.10
2022-09-25T07:55:38.813Z,88.70
2022-09-25T07:56:38.760Z,55.60
2022-09-25T07:57:38.758Z,48.80
2022-09-25T07:58:38.739Z,156.80
2022-09-25T07:59:38.727Z,929.30
2022-09-25T08:00:38.765Z,824.20
2022-09-25T08:01:43.984Z,423.30
2022-09-25T08:02:39.789Z,1218.00
2022-09-25T08:03:38.693Z,1999.90
2022-09-25T08:04:38.668Z,1999.90
2022-09-25T08:05:38.703Z,1999.90
2022-09-25T08:06:38.639Z,1999.90
2022-09-25T08:07:38.644Z,1999.90
2022-09-25T08:08:38.621Z,1999.90
2022-09-25T08:09:38.618Z,1999.90
2022-09-25T08:10:38.643Z,1999.90
2022-09-25T08:11:38.605Z,1999.90
2022-09-25T08:12:38.576Z,1999.90
2022-09-25T08:13:38.575Z,1999.90
2022-09-25T08:14:38.556Z,1999.90
2022-09-25T08:15:38.588Z,1999.90
2022-09-25T08:16:38.519Z,1999.90
2022-09-25T08:17:38.533Z,1999.90
2022-09-25T08:18:38.526Z,1999.90
2022-09-25T08:19:38.505Z,1999.90
2022-09-25T08:20:38.553Z,1999.90
2022-09-25T08:21:38.485Z,1999.90
2022-09-25T08:22:38.474Z,1999.90
2022-09-25T08:23:38.450Z,1999.90
2022-09-25T08:24:38.439Z,1999.90
2022-09-25T08:25:38.476Z,1999.90
2022-09-25T08:26:38.422Z,1999.90
2022-09-25T08:27:38.401Z,1999.90
2022-09-25T08:28:38.402Z,1999.90
2022-09-25T08:29:38.384Z,1999.90
2022-09-25T08:30:38.503Z,1999.90
2022-09-25T08:31:38.398Z,1999.90
2022-09-25T08:32:38.356Z,1999.90
2022-09-25T08:33:38.355Z,1999.90
2022-09-25T08:34:42.076Z,1999.90
2022-09-25T08:35:38.374Z,1999.90
2022-09-25T08:36:38.333Z,1999.90
2022-09-25T08:37:38.300Z,1999.90
2022-09-25T08:38:38.282Z,1999.90
2022-09-25T08:39:38.276Z,1999.90
2022-09-25T08:40:39.926Z,1999.90
2022-09-25T08:41:38.253Z,1881.40
2022-09-25T08:42:38.243Z,59.70
2022-09-25T08:43:38.248Z,34.00
2022-09-25T08:44:38.209Z,19.40
2022-09-25T08:45:38.247Z,16.70
2022-09-25T08:46:38.227Z,14.30
2022-09-25T08:47:38.186Z,11.70
2022-09-25T08:48:38.163Z,11.00
2022-09-25T08:49:38.165Z,12.00
2022-09-25T08:50:38.190Z,11.40
2022-09-25T08:51:38.134Z,11.10
2022-09-25T08:52:38.121Z,10.70
2022-09-25T08:53:38.122Z,10.10
2022-09-25T08:54:40.922Z,9.50
2022-09-25T08:55:39.131Z,10.60
2022-09-25T08:56:38.092Z,9.80
2022-09-25T08:57:38.090Z,9.00
2022-09-25T08:58:38.073Z,10.40
2022-09-25T08:59:38.063Z,10.70
2022-09-25T09:00:38.073Z,11.60
2022-09-25T09:01:38.102Z,8.90
2022-09-25T09:02:38.046Z,8.90
2022-09-25T09:03:38.003Z,8.90
2022-09-25T09:04:38.030Z,8.40
2022-09-25T09:05:38.024Z,8.40
2022-09-25T09:06:37.972Z,8.90
2022-09-25T09:07:37.968Z,7.90
2022-09-25T09:08:37.947Z,7.70
2022-09-25T09:09:37.943Z,7.80
2022-09-25T09:10:37.958Z,7.50
2022-09-25T09:11:37.926Z,7.40
2022-09-25T09:12:37.916Z,6.80
2022-09-25T09:13:37.905Z,7.50
2022-09-25T09:14:37.884Z,7.90
2022-09-25T09:15:37.981Z,7.00
2022-09-25T09:16:37.870Z,6.90
2022-09-25T09:17:37.856Z,6.70
2022-09-25T09:18:37.826Z,7.10
2022-09-25T09:19:37.833Z,8.00
2022-09-25T09:20:37.859Z,7.50
2022-09-25T09:21:37.813Z,7.50
2022-09-25T09:22:37.822Z,7.00
2022-09-25T09:23:37.783Z,7.60
2022-09-25T09:24:37.758Z,7.60
2022-09-25T09:25:37.790Z,7.80
2022-09-25T09:26:37.753Z,8.10
2022-09-25T09:27:37.754Z,7.90
2022-09-25T09:28:37.729Z,7.70
2022-09-25T09:29:37.725Z,7.50
2022-09-25T09:30:37.810Z,7.70
2022-09-25T09:31:37.695Z,7.70
2022-09-25T09:32:37.691Z,7.70
2022-09-25T09:33:37.672Z,7.40
2022-09-25T09:35:01.067Z,7.70
2022-09-25T09:35:38.654Z,7.50
2022-09-25T09:36:37.644Z,7.60
2022-09-25T09:37:37.644Z,8.00
2022-09-25T09:38:37.601Z,8.00
2022-09-25T09:39:37.654Z,8.50
2022-09-25T09:40:37.651Z,8.30
2022-09-25T09:41:37.594Z,7.80
2022-09-25T09:42:37.570Z,7.80
2022-09-25T09:43:37.565Z,7.70
2022-09-25T09:44:37.583Z,8.30
2022-09-25T09:45:37.538Z,8.40
2022-09-25T09:46:37.550Z,8.00
2022-09-25T09:47:37.519Z,8.00
2022-09-25T09:48:37.518Z,8.00
2022-09-25T09:49:37.578Z,8.10
2022-09-25T09:50:42.436Z,8.50
2022-09-25T09:51:38.490Z,8.20
2022-09-25T09:52:37.459Z,8.40
2022-09-25T09:53:37.458Z,8.30
2022-09-25T09:54:37.443Z,8.10
2022-09-25T09:55:37.462Z,8.90
2022-09-25T09:56:37.409Z,7.60
2022-09-25T09:57:37.404Z,7.90
2022-09-25T09:58:37.384Z,7.90
2022-09-25T09:59:37.421Z,8.20
2022-09-25T10:00:37.368Z,8.40
2022-09-25T10:01:41.372Z,8.10
2022-09-25T10:02:37.443Z,7.60
2022-09-25T10:03:37.346Z,7.60
2022-09-25T10:04:37.358Z,7.70
2022-09-25T10:05:37.318Z,7.30
2022-09-25T10:06:37.322Z,7.90
2022-09-25T10:07:37.299Z,7.60
2022-09-25T10:08:37.286Z,8.00
2022-09-25T10:09:37.325Z,7.60
2022-09-25T10:10:37.277Z,7.70
2022-09-25T10:11:37.274Z,7.80
2022-09-25T10:12:37.258Z,7.90
2022-09-25T10:13:37.245Z,8.20
2022-09-25T10:14:37.226Z,7.80
2022-09-25T10:15:37.329Z,7.80
2022-09-25T10:16:37.201Z,8.30
2022-09-25T10:17:37.191Z,8.30
2022-09-25T10:18:37.178Z,8.50
2022-09-25T10:19:37.238Z,8.80
2022-09-25T10:20:37.161Z,8.40
2022-09-25T10:21:37.156Z,9.10
2022-09-25T10:22:37.144Z,8.80
2022-09-25T10:23:37.121Z,8.60
2022-09-25T10:24:37.141Z,9.30
2022-09-25T10:25:37.147Z,8.80
2022-09-25T10:26:37.111Z,8.90
2022-09-25T10:27:37.093Z,8.80
2022-09-25T10:28:37.076Z,9.30
2022-09-25T10:29:37.082Z,8.80
2022-09-25T10:30:37.154Z,8.80
2022-09-25T10:31:37.034Z,8.80
2022-09-25T10:32:37.029Z,8.60
2022-09-25T10:33:37.026Z,8.80
2022-09-25T10:34:37.000Z,8.40
2022-09-25T10:35:37.046Z,8.80
2022-09-25T10:36:36.992Z,8.30
2022-09-25T10:37:36.974Z,8.30
2022-09-25T10:38:36.961Z,8.70
2022-09-25T10:39:44.748Z,8.50
2022-09-25T10:40:38.121Z,9.20
2022-09-25T10:41:36.940Z,9.20
2022-09-25T10:42:36.928Z,9.20
2022-09-25T10:43:36.918Z,9.40
2022-09-25T10:44:36.920Z,9.70
2022-09-25T10:45:36.920Z,9.40
2022-09-25T10:46:36.937Z,9.30
2022-09-25T10:47:36.861Z,9.10
2022-09-25T10:48:36.862Z,9.40
2022-09-25T10:49:36.844Z,8.50
2022-09-25T10:50:36.912Z,8.70
2022-09-25T10:51:36.837Z,8.20
2022-09-25T10:52:36.822Z,8.40
2022-09-25T10:53:36.811Z,8.00
2022-09-25T10:54:40.523Z,8.10
2022-09-25T10:55:37.817Z,8.20
2022-09-25T10:56:36.790Z,7.80
2022-09-25T10:57:36.780Z,7.90
2022-09-25T10:58:36.763Z,8.00
2022-09-25T10:59:36.763Z,8.30
2022-09-25T11:00:36.772Z,7.50
2022-09-25T11:01:36.913Z,8.10
2022-09-25T11:02:36.791Z,7.80
2022-09-25T11:03:36.692Z,8.20
2022-09-25T11:04:36.675Z,7.80
2022-09-25T11:05:36.709Z,8.40
2022-09-25T11:06:36.674Z,8.00
2022-09-25T11:07:36.657Z,8.20
2022-09-25T11:08:36.660Z,8.30
2022-09-25T11:09:36.643Z,8.20
2022-09-25T11:10:36.684Z,8.70
2022-09-25T11:11:36.612Z,9.00
2022-09-25T11:12:36.600Z,8.70
2022-09-25T11:13:36.592Z,9.10
2022-09-25T11:14:36.612Z,9.40
2022-09-25T11:15:36.590Z,9.00
2022-09-25T11:16:36.619Z,9.10
2022-09-25T11:17:36.571Z,8.80
2022-09-25T11:18:36.543Z,8.90
2022-09-25T11:19:36.531Z,8.80
2022-09-25T11:20:36.558Z,8.50
2022-09-25T11:21:36.510Z,8.80
2022-09-25T11:22:36.498Z,8.50
2022-09-25T11:23:36.498Z,8.90
2022-09-25T11:24:36.485Z,8.20
2022-09-25T11:25:36.498Z,8.30
2022-09-25T11:26:36.460Z,8.30
2022-09-25T11:27:36.439Z,7.90
2022-09-25T11:28:36.448Z,8.00
2022-09-25T11:29:36.418Z,7.70
2022-09-25T11:30:36.558Z,7.90
2022-09-25T11:31:36.398Z,7.60
2022-09-25T11:32:36.403Z,7.80
2022-09-25T11:33:36.363Z,7.80
2022-09-25T11:34:36.352Z,8.30
2022-09-25T11:35:36.378Z,8.10
2022-09-25T11:36:36.341Z,7.70
2022-09-25T11:37:36.353Z,7.80
2022-09-25T11:38:36.338Z,7.30
2022-09-25T11:39:36.316Z,7.30
2022-09-25T11:40:36.346Z,7.70
2022-09-25T11:41:36.305Z,7.50
2022-09-25T11:42:36.274Z,7.70
2022-09-25T11:43:36.282Z,8.10
2022-09-25T11:44:36.270Z,7.70
2022-09-25T11:45:36.278Z,8.00
2022-09-25T11:46:36.252Z,7.70
2022-09-25T11:47:36.257Z,7.90
2022-09-25T11:48:36.221Z,8.10
2022-09-25T11:49:36.232Z,8.30
2022-09-25T11:50:36.246Z,8.10
2022-09-25T11:51:36.193Z,8.00
2022-09-25T11:52:36.183Z,8.20
2022-09-25T11:53:36.169Z,7.90
2022-09-25T11:54:36.740Z,7.80
2022-09-25T11:55:36.155Z,7.60
2022-09-25T11:56:36.227Z,7.40
2022-09-25T11:57:36.156Z,8.00
2022-09-25T11:58:36.139Z,7.80
2022-09-25T11:59:36.106Z,7.50
2022-09-25T12:00:36.150Z,7.70
2022-09-25T12:01:36.171Z,7.80
2022-09-25T12:02:36.116Z,7.70
2022-09-25T12:03:36.056Z,7.50
2022-09-25T12:04:41.267Z,7.70
2022-09-25T12:05:37.035Z,7.50
2022-09-25T12:06:36.011Z,7.60
2022-09-25T12:07:36.000Z,7.80
2022-09-25T12:08:36.018Z,7.80
2022-09-25T12:09:36.055Z,7.90
2022-09-25T12:10:36.019Z,7.90
2022-09-25T12:11:35.976Z,7.90
2022-09-25T12:12:35.973Z,7.60
2022-09-25T12:13:35.954Z,7.80
2022-09-25T12:14:35.985Z,7.90
2022-09-25T12:15:35.924Z,8.30
2022-09-25T12:16:36.059Z,8.10
2022-09-25T12:17:35.903Z,8.50
2022-09-25T12:18:35.897Z,8.10
2022-09-25T12:19:35.941Z,7.90
2022-09-25T12:20:35.903Z,8.70
2022-09-25T12:21:35.879Z,8.70
2022-09-25T12:22:35.863Z,8.00
2022-09-25T12:23:35.842Z,8.00
2022-09-25T12:24:35.884Z,8.00
2022-09-25T12:25:35.836Z,8.30
2022-09-25T12:26:35.827Z,8.20
2022-09-25T12:27:35.817Z,8.30
2022-09-25T12:28:35.796Z,8.20
2022-09-25T12:29:35.826Z,8.20
2022-09-25T12:30:35.829Z,8.30
2022-09-25T12:31:35.783Z,8.70
2022-09-25T12:32:35.761Z,8.20
2022-09-25T12:33:35.758Z,8.30
2022-09-25T12:34:35.773Z,7.70
2022-09-25T12:35:35.731Z,8.10
2022-09-25T12:36:35.711Z,8.40
2022-09-25T12:37:35.700Z,8.00
2022-09-25T12:38:35.690Z,8.10
2022-09-25T12:39:35.700Z,8.20
2022-09-25T12:40:35.722Z,8.20
2022-09-25T12:41:35.650Z,8.30
2022-09-25T12:42:35.661Z,8.00